Time;durP1;ratioP1;P1;durP2;ratioP2;P2;SDS_P1;SDS_P2;PMS_P1;PMS_P2;Temp;Humidity;BMP_temperature;BMP_pressure;BME280_temperature;BME280_humidity;BME280_pressure;Samples;Min_cycle;Max_cycle;Signal;HPM_P1;HPM_P2
2022/10/06 00:00:47;;;;;;;10.03;2.07;;;15.30;1.00;;;;;;4960421;28;20200;-84
2022/10/06 00:03:16;;;;;;;7.07;2.00;;;15.30;1.00;;;;;;4976982;28;20182;-84
2022/10/06 00:05:43;;;;;;;7.33;1.90;;;15.20;1.00;;;;;;4976672;28;20208;-85
2022/10/06 00:08:09;;;;;;;11.53;2.10;;;15.20;1.00;;;;;;4976618;28;20225;-86
2022/10/06 00:10:35;;;;;;;8.37;2.07;;;15.20;1.00;;;;;;4976348;28;20269;-86
2022/10/06 00:13:02;;;;;;;10.13;2.20;;;15.20;1.00;;;;;;4976377;28;20209;-85
2022/10/06 00:15:30;;;;;;;7.87;2.17;;;15.20;1.00;;;;;;4976190;28;20207;-86
2022/10/06 00:17:56;;;;;;;9.97;2.30;;;15.10;1.00;;;;;;4975896;28;20273;-84
2022/10/06 00:20:23;;;;;;;9.77;2.20;;;15.10;1.00;;;;;;4976777;28;20278;-89
2022/10/06 00:22:50;;;;;;;9.47;2.20;;;15.00;1.00;;;;;;4979845;28;20588;-87
2022/10/06 00:25:19;;;;;;;9.70;2.20;;;15.00;1.00;;;;;;4980668;28;20198;-85
2022/10/06 00:27:47;;;;;;;10.33;2.30;;;14.90;1.00;;;;;;4984437;28;20237;-87
2022/10/06 00:30:17;;;;;;;10.80;2.70;;;14.90;1.00;;;;;;4990935;28;20185;-87
2022/10/06 00:32:52;;;;;;;9.80;2.00;;;14.90;1.00;;;;;;4988764;28;20189;-88
2022/10/06 00:35:18;;;;;;;12.07;2.77;;;14.90;1.00;;;;;;4979146;28;20173;-87
2022/10/06 00:37:47;;;;;;;8.47;2.63;;;14.80;1.00;;;;;;4980033;28;20198;-88
2022/10/06 00:40:15;;;;;;;8.03;2.20;;;14.80;1.00;;;;;;4996940;28;20207;-88
2022/10/06 00:42:52;;;;;;;9.00;2.40;;;14.70;1.00;;;;;;4989466;28;20181;-88
2022/10/06 00:45:24;;;;;;;12.50;2.53;;;14.70;1.00;;;;;;4979016;28;20184;-85
2022/10/06 00:47:49;;;;;;;9.73;1.93;;;14.70;1.00;;;;;;4977755;28;20270;-87
2022/10/06 00:50:18;;;;;;;11.97;2.30;;;14.70;1.00;;;;;;4977895;28;20538;-89
2022/10/06 00:52:44;;;;;;;9.97;2.30;;;14.70;1.00;;;;;;4977221;28;20173;-89
2022/10/06 00:55:10;;;;;;;9.03;2.20;;;14.70;1.00;;;;;;4979353;28;20196;-89
2022/10/06 00:57:38;;;;;;;8.57;2.27;;;14.70;1.00;;;;;;4982262;28;20178;-88
2022/10/06 01:00:06;;;;;;;11.53;2.80;;;14.90;1.00;;;;;;4978971;28;20173;-89
2022/10/06 01:02:41;;;;;;;10.30;2.60;;;14.70;1.00;;;;;;4982832;28;20183;-84
2022/10/06 01:05:10;;;;;;;8.77;2.33;;;14.70;1.00;;;;;;4989526;28;20179;-84
2022/10/06 01:07:36;;;;;;;11.30;3.10;;;14.60;1.00;;;;;;4974699;28;20263;-87
2022/10/06 01:10:02;;;;;;;10.00;2.30;;;14.50;1.00;;;;;;4981710;28;20172;-88
2022/10/06 01:12:31;;;;;;;8.60;2.07;;;14.50;1.00;;;;;;4978817;28;20169;-87
2022/10/06 01:14:56;;;;;;;9.70;1.90;;;14.50;1.00;;;;;;4982181;28;20160;-88
2022/10/06 01:17:31;;;;;;;13.47;2.93;;;14.50;1.00;;;;;;4978482;28;20211;-84
2022/10/06 01:20:02;;;;;;;12.60;2.50;;;14.50;1.00;;;;;;4977716;28;20203;-89
2022/10/06 01:22:40;;;;;;;10.77;2.50;;;14.50;1.00;;;;;;4991381;28;20177;-89
2022/10/06 01:25:08;;;;;;;13.80;3.50;;;14.40;1.00;;;;;;4980241;28;20220;-89
2022/10/06 01:27:36;;;;;;;11.17;2.93;;;14.50;1.00;;;;;;4976451;28;20328;-88
2022/10/06 01:30:03;;;;;;;9.20;2.63;;;14.50;1.00;;;;;;4975841;28;20195;-89
2022/10/06 01:32:37;;;;;;;8.47;3.10;;;14.50;1.00;;;;;;4976712;28;20666;-84
2022/10/06 01:35:05;;;;;;;12.40;2.47;;;14.40;1.00;;;;;;4976026;28;20180;-88
2022/10/06 01:37:31;;;;;;;12.53;3.13;;;14.30;1.00;;;;;;4975649;28;20537;-88
2022/10/06 01:39:57;;;;;;;11.40;2.83;;;14.30;1.00;;;;;;4976019;28;20179;-86
2022/10/06 01:42:22;;;;;;;10.57;2.67;;;14.30;1.00;;;;;;4976674;28;20274;-89
2022/10/06 01:44:48;;;;;;;13.40;2.67;;;14.20;1.00;;;;;;4976634;28;20635;-85
2022/10/06 01:47:14;;;;;;;11.30;2.63;;;14.20;1.00;;;;;;4976400;28;20193;-84
2022/10/06 01:49:40;;;;;;;15.23;2.77;;;14.20;1.00;;;;;;4975718;28;20678;-89
2022/10/06 01:52:06;;;;;;;11.47;2.40;;;14.20;1.00;;;;;;4976380;28;20187;-88
2022/10/06 01:54:32;;;;;;;11.77;2.80;;;14.20;1.00;;;;;;4975639;28;20232;-89
2022/10/06 01:56:58;;;;;;;11.20;2.43;;;14.10;1.00;;;;;;4975260;28;20222;-84
2022/10/06 01:59:24;;;;;;;9.47;2.43;;;14.10;1.00;;;;;;4980585;28;20174;-85
2022/10/06 02:01:50;;;;;;;10.73;2.67;;;14.10;1.00;;;;;;4984750;28;20185;-89
2022/10/06 02:04:15;;;;;;;13.57;3.07;;;14.20;1.00;;;;;;4994512;28;20227;-85
2022/10/06 02:06:42;;;;;;;11.70;2.90;;;14.10;1.00;;;;;;4991584;28;20192;-83
2022/10/06 02:09:11;;;;;;;13.50;3.37;;;14.10;1.00;;;;;;4984585;28;20175;-83
2022/10/06 02:11:43;;;;;;;12.07;2.73;;;14.00;1.00;;;;;;4981697;28;20179;-83
2022/10/06 02:14:10;;;;;;;10.13;2.40;;;14.00;1.00;;;;;;4980781;28;20170;-83
2022/10/06 02:17:01;;;;;;;16.00;2.83;;;13.90;1.00;;;;;;4979071;28;20208;-85
2022/10/06 02:19:28;;;;;;;14.43;3.30;;;13.80;1.00;;;;;;4980819;28;20243;-84
2022/10/06 02:21:57;;;;;;;8.87;2.90;;;13.80;1.00;;;;;;4980078;28;20186;-84
2022/10/06 02:24:27;;;;;;;14.80;3.17;;;13.70;1.00;;;;;;4976837;28;20188;-84
2022/10/06 02:26:54;;;;;;;12.20;2.63;;;13.90;1.00;;;;;;4975572;28;20189;-84
2022/10/06 02:29:19;;;;;;;8.23;2.53;;;13.60;1.00;;;;;;4975759;28;20182;-86
2022/10/06 02:31:45;;;;;;;8.67;2.40;;;13.60;1.00;;;;;;4974956;28;20188;-86
2022/10/06 02:34:11;;;;;;;8.63;2.60;;;13.60;1.00;;;;;;4974344;28;20192;-85
2022/10/06 02:36:37;;;;;;;10.67;2.57;;;13.60;1.00;;;;;;4974642;28;20575;-85
2022/10/06 02:39:03;;;;;;;8.87;2.73;;;13.90;1.00;;;;;;4974339;28;20638;-84
2022/10/06 02:41:29;;;;;;;14.57;2.90;;;13.80;1.00;;;;;;4977076;28;20607;-86
2022/10/06 02:43:55;;;;;;;9.93;2.53;;;13.80;1.00;;;;;;4994678;28;20173;-84
2022/10/06 02:46:22;;;;;;;12.13;2.53;;;13.60;1.00;;;;;;4995762;28;20204;-85
2022/10/06 02:48:49;;;;;;;15.83;2.60;;;13.50;1.00;;;;;;4993105;28;20340;-84
2022/10/06 02:51:25;;;;;;;11.40;2.47;;;13.40;1.00;;;;;;4996354;28;20169;-85
2022/10/06 02:53:53;;;;;;;12.77;2.67;;;13.30;1.00;;;;;;4997104;28;20195;-85
2022/10/06 02:56:25;;;;;;;11.40;2.63;;;13.30;1.00;;;;;;4986599;28;20236;-86
2022/10/06 02:58:53;;;;;;;12.40;2.87;;;13.40;1.00;;;;;;4977828;28;20161;-84
2022/10/06 03:01:24;;;;;;;12.03;3.07;;;13.30;1.00;;;;;;4977276;28;20173;-84
2022/10/06 03:03:53;;;;;;;11.27;2.80;;;13.30;1.00;;;;;;4977125;28;20168;-84
2022/10/06 03:06:26;;;;;;;11.03;2.87;;;13.20;1.00;;;;;;4975790;28;20182;-85
2022/10/06 03:09:31;;;;;;;14.37;2.73;;;13.30;1.00;;;;;;4973691;28;20169;-86
2022/10/06 03:12:07;;;;;;;12.60;2.67;;;13.20;1.00;;;;;;4975499;28;20252;-85
2022/10/06 03:14:33;;;;;;;11.70;2.47;;;13.10;1.00;;;;;;4974333;28;20284;-86
2022/10/06 03:16:59;;;;;;;13.07;2.70;;;13.10;1.00;;;;;;4975043;28;20229;-84
2022/10/06 03:19:25;;;;;;;12.57;2.53;;;13.00;1.00;;;;;;4977786;28;20189;-84
2022/10/06 03:21:50;;;;;;;9.50;2.73;;;13.00;1.00;;;;;;4981526;28;20589;-83
2022/10/06 03:24:16;;;;;;;13.63;2.53;;;12.90;1.00;;;;;;4981083;28;20742;-83
2022/10/06 03:26:44;;;;;;;9.00;2.63;;;12.90;1.70;;;;;;4977264;28;20177;-84
2022/10/06 03:29:10;;;;;;;11.03;2.73;;;13.00;2.70;;;;;;4976905;28;20217;-83
2022/10/06 03:31:38;;;;;;;10.87;2.80;;;13.00;1.70;;;;;;4977443;28;20525;-84
2022/10/06 03:34:04;;;;;;;13.17;2.80;;;13.00;4.70;;;;;;4980260;28;20175;-86
2022/10/06 03:36:34;;;;;;;13.20;2.97;;;13.10;7.20;;;;;;4983468;28;20203;-88
2022/10/06 03:39:04;;;;;;;11.33;2.70;;;13.00;10.00;;;;;;4984595;28;20183;-86
2022/10/06 03:41:31;;;;;;;14.67;3.00;;;13.10;11.30;;;;;;4994975;28;20174;-83
2022/10/06 03:43:58;;;;;;;14.80;2.67;;;12.90;13.40;;;;;;4996636;28;20161;-87
2022/10/06 03:46:29;;;;;;;12.07;2.93;;;13.00;12.60;;;;;;4983792;28;20211;-87
2022/10/06 03:48:59;;;;;;;14.33;2.93;;;13.10;12.30;;;;;;4982292;28;20192;-88
2022/10/06 03:51:36;;;;;;;8.73;2.30;;;13.20;13.00;;;;;;4977915;28;20235;-86
2022/10/06 03:54:09;;;;;;;9.07;2.17;;;13.00;14.60;;;;;;4977189;28;20173;-88
2022/10/06 03:56:40;;;;;;;10.50;3.07;;;13.00;17.70;;;;;;4977419;28;20236;-89
2022/10/06 03:59:11;;;;;;;14.87;3.60;;;13.00;22.10;;;;;;4977150;28;20232;-88
2022/10/06 04:01:46;;;;;;;10.33;2.83;;;12.90;25.70;;;;;;4976555;28;20181;-88
2022/10/06 04:04:12;;;;;;;17.97;3.50;;;12.80;28.10;;;;;;4976664;28;20647;-86
2022/10/06 04:06:40;;;;;;;13.93;2.83;;;12.90;29.70;;;;;;4983446;28;20188;-85
2022/10/06 04:09:09;;;;;;;11.83;3.40;;;12.70;27.30;;;;;;4992961;28;20172;-83
2022/10/06 04:11:37;;;;;;;11.03;2.83;;;12.80;30.20;;;;;;4981078;28;20193;-86
2022/10/06 04:14:05;;;;;;;12.53;2.77;;;12.80;30.20;;;;;;4976514;28;20594;-85
2022/10/06 04:16:36;;;;;;;16.30;3.03;;;12.70;34.00;;;;;;4976379;28;20707;-86
2022/10/06 04:19:10;;;;;;;10.07;2.40;;;12.70;39.50;;;;;;4976292;28;20189;-85
2022/10/06 04:21:39;;;;;;;17.43;3.53;;;12.70;37.10;;;;;;4977271;28;20196;-84
2022/10/06 04:24:06;;;;;;;15.93;3.17;;;12.80;34.80;;;;;;4978841;28;20236;-84
2022/10/06 04:26:35;;;;;;;14.80;3.00;;;13.00;32.50;;;;;;4985628;28;20181;-84
2022/10/06 04:29:01;;;;;;;12.93;2.73;;;12.90;28.00;;;;;;4984597;28;20171;-85
2022/10/06 04:31:29;;;;;;;11.67;2.87;;;12.90;32.20;;;;;;4987393;28;20203;-85
2022/10/06 04:34:00;;;;;;;16.37;3.90;;;12.70;33.20;;;;;;4987290;28;20247;-87
2022/10/06 04:36:31;;;;;;;11.60;3.10;;;12.70;38.20;;;;;;4975193;28;20205;-85
2022/10/06 04:39:01;;;;;;;15.30;3.27;;;12.60;41.40;;;;;;4975395;28;20646;-86
2022/10/06 04:41:32;;;;;;;15.87;4.00;;;12.70;42.20;;;;;;4975698;28;20173;-86
2022/10/06 04:43:59;;;;;;;11.40;3.10;;;12.60;39.60;;;;;;4981813;28;20655;-83
2022/10/06 04:46:25;;;;;;;16.83;3.20;;;12.50;45.50;;;;;;4981698;28;20286;-86
2022/10/06 04:48:53;;;;;;;10.67;3.00;;;12.50;46.90;;;;;;4981370;28;20191;-85
2022/10/06 04:51:20;;;;;;;13.73;3.47;;;12.60;42.40;;;;;;4984306;28;20552;-86
2022/10/06 04:53:47;;;;;;;16.27;3.93;;;12.60;41.60;;;;;;4988376;28;20203;-86
2022/10/06 04:56:15;;;;;;;14.23;2.83;;;12.50;45.00;;;;;;4977623;28;20702;-83
2022/10/06 04:58:45;;;;;;;13.77;3.30;;;12.40;46.60;;;;;;4975172;28;20176;-85
2022/10/06 05:01:16;;;;;;;16.17;3.27;;;12.30;49.90;;;;;;4977086;28;20263;-85
2022/10/06 05:03:44;;;;;;;12.70;2.63;;;12.30;50.60;;;;;;4977313;28;20183;-87
2022/10/06 05:06:15;;;;;;;13.80;3.40;;;12.50;44.50;;;;;;4976853;28;20262;-88
2022/10/06 05:08:43;;;;;;;12.47;3.27;;;12.50;45.20;;;;;;4974903;28;20284;-85
2022/10/06 05:11:11;;;;;;;11.27;3.10;;;12.40;45.60;;;;;;4975681;28;20176;-84
2022/10/06 05:13:38;;;;;;;16.63;3.40;;;12.40;42.50;;;;;;4977542;28;20217;-87
2022/10/06 05:16:07;;;;;;;17.93;3.60;;;12.30;43.40;;;;;;4976395;28;20231;-87
2022/10/06 05:18:34;;;;;;;13.03;3.80;;;12.50;37.60;;;;;;4974934;28;20235;-87
2022/10/06 05:21:29;;;;;;;16.80;3.57;;;12.70;36.70;;;;;;4976519;28;20775;-86
2022/10/06 05:23:58;;;;;;;18.67;3.93;;;12.60;33.10;;;;;;4976447;28;20171;-88
2022/10/06 05:26:26;;;;;;;13.77;3.43;;;12.80;33.40;;;;;;4975280;28;20259;-88
2022/10/06 05:28:52;;;;;;;13.60;3.30;;;12.50;36.20;;;;;;4973896;28;20171;-85
2022/10/06 05:31:27;;;;;;;12.63;2.97;;;12.50;36.20;;;;;;4978405;28;20226;-86
2022/10/06 05:33:54;;;;;;;16.90;3.73;;;12.60;35.60;;;;;;4980915;28;20262;-86
2022/10/06 05:36:22;;;;;;;13.80;3.60;;;12.50;37.50;;;;;;4975575;28;20217;-86
2022/10/06 05:38:49;;;;;;;16.37;3.80;;;12.40;38.80;;;;;;4975665;28;20175;-86
2022/10/06 05:41:16;;;;;;;16.30;3.47;;;12.30;38.90;;;;;;4967735;28;20204;-84
2022/10/06 05:43:44;;;;;;;13.43;3.20;;;12.30;43.00;;;;;;4993332;28;20243;-87
2022/10/06 05:46:16;;;;;;;19.27;3.60;;;12.30;41.10;;;;;;4989921;28;20286;-82
2022/10/06 05:48:45;;;;;;;14.63;4.80;;;12.40;42.00;;;;;;4981052;28;20183;-84
2022/10/06 05:51:15;;;;;;;11.37;3.80;;;12.40;41.40;;;;;;4976929;28;20182;-86
2022/10/06 05:53:47;;;;;;;14.23;3.30;;;12.30;41.90;;;;;;4975602;28;20200;-85
2022/10/06 05:56:30;;;;;;;10.90;3.20;;;12.20;46.60;;;;;;4974174;28;20291;-86
2022/10/06 05:58:59;;;;;;;9.50;2.97;;;12.30;47.50;;;;;;4980239;28;20168;-83
2022/10/06 06:01:43;;;;;;;11.67;3.47;;;12.20;47.50;;;;;;4995387;28;20198;-85
2022/10/06 06:04:11;;;;;;;18.00;3.70;;;12.20;45.20;;;;;;4991978;28;20168;-87
2022/10/06 06:06:41;;;;;;;19.47;3.80;;;12.30;47.20;;;;;;4992158;28;20175;-86
2022/10/06 06:09:10;;;;;;;17.20;3.80;;;12.20;46.40;;;;;;4998155;28;20191;-89
2022/10/06 06:11:41;;;;;;;13.77;4.00;;;12.30;44.70;;;;;;4998239;28;20176;-88
2022/10/06 06:14:09;;;;;;;16.57;4.27;;;12.30;46.90;;;;;;5007057;28;20175;-89
2022/10/06 06:16:37;;;;;;;11.70;3.07;;;12.10;49.40;;;;;;5005796;28;20210;-85
2022/10/06 06:19:04;;;;;;;20.60;3.90;;;12.30;45.70;;;;;;4995443;28;20178;-88
2022/10/06 06:21:30;;;;;;;13.27;3.53;;;12.30;44.00;;;;;;4995226;28;20203;-87
2022/10/06 06:23:56;;;;;;;14.70;3.67;;;12.30;46.60;;;;;;4996146;28;20228;-88
2022/10/06 06:26:25;;;;;;;14.40;3.90;;;12.30;48.60;;;;;;5000569;28;20185;-86
2022/10/06 06:28:52;;;;;;;23.60;4.80;;;12.50;50.30;;;;;;4995966;28;20175;-87
2022/10/06 06:31:26;;;;;;;20.10;4.37;;;12.50;50.60;;;;;;4999539;28;20179;-88
2022/10/06 06:33:58;;;;;;;21.87;4.27;;;12.50;49.60;;;;;;4997927;28;20186;-87
2022/10/06 06:36:34;;;;;;;18.13;3.87;;;12.30;50.10;;;;;;4993873;28;20277;-89
2022/10/06 06:39:02;;;;;;;18.53;3.93;;;12.40;49.00;;;;;;4994150;28;20182;-87
2022/10/06 06:41:36;;;;;;;12.37;3.97;;;12.40;47.60;;;;;;4994837;28;20274;-88
2022/10/06 06:44:02;;;;;;;18.63;4.07;;;12.40;46.60;;;;;;4995695;28;20168;-86
2022/10/06 06:46:31;;;;;;;13.73;3.17;;;12.40;45.60;;;;;;4990446;28;20268;-89
2022/10/06 06:49:03;;;;;;;21.03;4.50;;;12.40;45.70;;;;;;4967672;28;20192;-86
2022/10/06 06:51:33;;;;;;;19.63;4.23;;;12.50;44.10;;;;;;4991923;28;20180;-87
2022/10/06 06:54:01;;;;;;;19.63;3.83;;;12.50;40.90;;;;;;4997128;28;20169;-89
2022/10/06 06:56:28;;;;;;;12.70;4.07;;;12.50;40.50;;;;;;4985699;28;20211;-91
2022/10/06 06:58:53;;;;;;;17.80;4.10;;;12.70;35.00;;;;;;4982093;28;20215;-89
2022/10/06 07:01:20;;;;;;;22.47;4.13;;;12.80;30.00;;;;;;4986386;28;20233;-88
2022/10/06 07:03:57;;;;;;;19.80;4.17;;;12.60;29.50;;;;;;4982768;28;20188;-89
2022/10/06 07:06:27;;;;;;;18.50;3.90;;;12.80;32.00;;;;;;4984111;28;20179;-90
2022/10/06 07:08:58;;;;;;;19.87;4.27;;;12.60;30.00;;;;;;4981560;28;20667;-88
2022/10/06 07:11:40;;;;;;;16.83;3.90;;;12.70;29.80;;;;;;4980902;28;20180;-86
2022/10/06 07:14:13;;;;;;;14.17;3.80;;;12.60;31.80;;;;;;4981502;28;20180;-90
2022/10/06 07:25:10;;;;;;;15.37;3.70;;;12.90;25.00;;;;;;4981605;28;20220;-88
2022/10/06 07:27:45;;;;;;;21.53;3.90;;;13.10;19.50;;;;;;4981060;28;20628;-85
2022/10/06 07:30:19;;;;;;;19.47;4.07;;;13.00;20.00;;;;;;4983857;28;20266;-86
2022/10/06 07:32:49;;;;;;;12.90;3.77;;;13.00;19.10;;;;;;4979227;28;20246;-86
2022/10/06 07:35:16;;;;;;;16.30;4.27;;;13.20;14.30;;;;;;4985422;28;20473;-86
2022/10/06 07:37:42;;;;;;;11.27;4.17;;;13.20;13.90;;;;;;4968266;28;20328;-86
2022/10/06 07:40:09;;;;;;;18.67;4.40;;;13.30;11.10;;;;;;4958069;29;20604;-88
2022/10/06 07:42:47;;;;;;;17.30;3.73;;;13.40;5.60;;;;;;4958366;29;20264;-88
2022/10/06 07:45:37;;;;;;;16.30;3.63;;;13.50;1.00;;;;;;4959985;29;20200;-86
2022/10/06 07:48:16;;;;;;;14.37;3.63;;;13.60;1.00;;;;;;4963985;28;20184;-88
2022/10/06 07:50:48;;;;;;;14.20;3.47;;;13.70;1.00;;;;;;4960223;29;20292;-87
2022/10/06 07:53:18;;;;;;;17.17;3.70;;;13.70;1.00;;;;;;4960980;29;20182;-88
2022/10/06 07:55:46;;;;;;;11.70;3.10;;;13.70;1.00;;;;;;4959574;29;20188;-89
2022/10/06 07:58:24;;;;;;;12.43;3.53;;;13.60;1.00;;;;;;4963331;28;20172;-85
2022/10/06 08:00:53;;;;;;;13.83;3.97;;;13.60;1.00;;;;;;4964618;29;20184;-86
2022/10/06 08:03:20;;;;;;;12.77;3.83;;;13.70;1.00;;;;;;4963085;29;20181;-86
2022/10/06 08:05:55;;;;;;;15.50;3.63;;;13.80;1.00;;;;;;4974970;28;20250;-86
2022/10/06 08:08:21;;;;;;;9.83;3.20;;;13.90;1.00;;;;;;4982953;28;20189;-87
2022/10/06 08:10:58;;;;;;;14.97;3.23;;;13.90;1.00;;;;;;4987754;28;20610;-88
2022/10/06 08:13:24;;;;;;;13.67;3.73;;;13.80;1.00;;;;;;4982942;28;20189;-87
2022/10/06 08:15:50;;;;;;;15.37;3.70;;;14.00;1.00;;;;;;4964056;28;20698;-87
2022/10/06 08:18:19;;;;;;;15.07;3.50;;;14.30;1.00;;;;;;4980422;28;20248;-88
2022/10/06 08:20:49;;;;;;;19.70;4.07;;;14.00;1.00;;;;;;4976980;28;20219;-86
2022/10/06 08:23:18;;;;;;;19.87;3.47;;;14.20;1.00;;;;;;4977955;28;20218;-90
2022/10/06 08:25:53;;;;;;;16.03;3.90;;;14.20;1.00;;;;;;4979709;28;20188;-87
2022/10/06 08:28:21;;;;;;;12.90;3.73;;;14.30;1.00;;;;;;4977842;28;20689;-89
2022/10/06 08:30:46;;;;;;;16.63;3.20;;;14.40;1.00;;;;;;4977317;28;20632;-90
2022/10/06 08:33:12;;;;;;;13.97;3.30;;;14.50;1.00;;;;;;4980023;28;20200;-89
2022/10/06 08:35:38;;;;;;;13.13;3.33;;;14.60;1.00;;;;;;4980760;28;20183;-88
2022/10/06 08:38:13;;;;;;;15.63;3.40;;;14.30;1.00;;;;;;4985213;28;20206;-88
2022/10/06 08:40:42;;;;;;;18.87;3.33;;;14.40;1.00;;;;;;4981314;28;20202;-91
2022/10/06 08:43:14;;;;;;;20.20;3.47;;;14.40;1.00;;;;;;4977786;28;20180;-88
2022/10/06 08:45:44;;;;;;;8.73;2.60;;;14.50;1.00;;;;;;4978377;28;20647;-90
2022/10/06 08:48:28;;;;;;;14.93;3.10;;;14.60;1.00;;;;;;4978844;28;20665;-88
2022/10/06 08:51:37;;;;;;;16.20;3.70;;;14.80;1.00;;;;;;4978949;28;20182;-89
2022/10/06 08:54:14;;;;;;;8.63;3.13;;;14.90;1.00;;;;;;4979057;28;20181;-87
2022/10/06 08:56:57;;;;;;;14.73;3.33;;;14.80;1.00;;;;;;4982931;28;20208;-86
2022/10/06 08:59:23;;;;;;;20.10;3.97;;;14.90;1.00;;;;;;4980840;28;20185;-87
2022/10/06 09:01:53;;;;;;;13.03;3.00;;;15.10;1.00;;;;;;4979764;28;20185;-86
2022/10/06 09:04:27;;;;;;;15.83;3.33;;;15.10;1.00;;;;;;4977253;28;20213;-87
2022/10/06 09:07:05;;;;;;;12.13;2.90;;;15.20;1.00;;;;;;4976625;28;20175;-86
2022/10/06 09:10:00;;;;;;;10.10;2.50;;;15.30;1.00;;;;;;4979384;28;20284;-85
2022/10/06 09:12:41;;;;;;;14.70;2.97;;;15.20;1.00;;;;;;4983847;28;20179;-86
2022/10/06 09:15:13;;;;;;;11.97;2.60;;;15.00;1.00;;;;;;4979651;28;20167;-87
2022/10/06 09:17:46;;;;;;;14.00;3.13;;;15.20;1.00;;;;;;4976062;28;20410;-86
2022/10/06 09:20:33;;;;;;;8.57;2.33;;;15.10;1.00;;;;;;4977137;28;20205;-87
2022/10/06 09:23:00;;;;;;;9.17;2.93;;;15.10;1.00;;;;;;4977465;28;20533;-86
2022/10/06 09:25:29;;;;;;;11.27;2.57;;;15.20;1.00;;;;;;4979359;28;20178;-87
2022/10/06 09:27:58;;;;;;;8.47;2.50;;;15.50;1.00;;;;;;4982795;28;20232;-86
2022/10/06 09:30:24;;;;;;;9.83;2.43;;;15.60;1.00;;;;;;4989930;28;20214;-87
2022/10/06 09:33:20;;;;;;;16.30;8.07;;;15.80;99.90;;;;;;4989712;28;20193;-88
2022/10/06 09:36:07;;;;;;;8.90;2.20;;;15.70;99.90;;;;;;4986474;28;20637;-86
2022/10/06 09:38:53;;;;;;;9.47;3.17;;;15.80;99.90;;;;;;4983197;28;20197;-86
2022/10/06 09:41:48;;;;;;;8.57;2.27;;;15.60;1.00;;;;;;4983015;28;20185;-87
2022/10/06 09:44:37;;;;;;;7.00;2.10;;;15.50;1.00;;;;;;4978533;28;20217;-87
2022/10/06 09:47:21;;;;;;;10.93;2.00;;;15.80;1.00;;;;;;4979304;28;20184;-88
2022/10/06 09:50:08;;;;;;;10.57;2.60;;;15.80;1.00;;;;;;4976632;28;20659;-85
2022/10/06 09:52:34;;;;;;;8.53;2.37;;;16.00;1.00;;;;;;4975591;28;20179;-86
2022/10/06 09:55:11;;;;;;;7.00;2.07;;;16.10;99.90;;;;;;4976381;28;20178;-88
2022/10/06 09:57:48;;;;;;;9.30;2.47;;;16.30;99.90;;;;;;4976013;28;20211;-87
2022/10/06 10:00:31;;;;;;;14.67;5.97;;;16.20;99.90;;;;;;4978722;28;20213;-87
2022/10/06 10:03:02;;;;;;;10.37;2.27;;;16.10;99.90;;;;;;4979385;28;20183;-88
2022/10/06 10:05:33;;;;;;;27.63;11.53;;;16.30;99.90;;;;;;4976336;28;20171;-88
2022/10/06 10:08:20;;;;;;;10.47;4.20;;;16.30;99.90;;;;;;4975230;28;20175;-87
2022/10/06 10:10:47;;;;;;;6.27;1.77;;;16.30;99.90;;;;;;4975945;28;20270;-89
2022/10/06 10:13:23;;;;;;;8.77;2.07;;;16.20;99.90;;;;;;4976009;28;20187;-91
2022/10/06 10:15:55;;;;;;;7.97;2.27;;;16.20;99.90;;;;;;4982944;28;20259;-87
2022/10/06 10:18:25;;;;;;;8.83;2.20;;;16.20;99.90;;;;;;4987266;28;20190;-88
2022/10/06 10:21:05;;;;;;;6.73;2.27;;;16.10;99.90;;;;;;4977594;28;20203;-86
2022/10/06 10:23:38;;;;;;;7.30;2.03;;;16.10;99.90;;;;;;4977869;28;20683;-89
2022/10/06 10:26:13;;;;;;;19.77;8.47;;;16.20;99.90;;;;;;4978761;28;20179;-87
2022/10/06 10:28:59;;;;;;;8.80;2.07;;;16.40;99.90;;;;;;4980131;28;20175;-90
2022/10/06 10:31:25;;;;;;;9.70;2.43;;;16.30;99.90;;;;;;4982330;28;20175;-90
2022/10/06 10:33:59;;;;;;;9.80;2.10;;;16.30;99.90;;;;;;4982284;28;20186;-87
2022/10/06 10:36:50;;;;;;;8.43;2.10;;;16.40;99.90;;;;;;4979998;28;20217;-87
2022/10/06 10:39:34;;;;;;;4.67;1.67;;;16.50;99.90;;;;;;4980830;28;20186;-86
2022/10/06 10:42:04;;;;;;;6.33;2.00;;;16.50;1.00;;;;;;4980296;28;20184;-85
2022/10/06 10:44:40;;;;;;;9.57;2.13;;;16.50;1.00;;;;;;4978820;28;20187;-87
2022/10/06 10:47:07;;;;;;;6.70;1.33;;;16.70;1.00;;;;;;4979245;28;20643;-87
2022/10/06 10:49:34;;;;;;;4.30;1.83;;;16.80;99.90;;;;;;4980830;28;20676;-87
2022/10/06 10:52:23;;;;;;;6.60;1.53;;;16.80;99.90;;;;;;4984184;28;20183;-87
2022/10/06 10:55:27;;;;;;;8.13;1.80;;;16.80;93.50;;;;;;4981695;28;20171;-87
2022/10/06 10:58:20;;;;;;;5.67;1.90;;;16.70;99.90;;;;;;4980116;28;20211;-87
2022/10/06 11:00:52;;;;;;;6.97;1.67;;;16.80;1.00;;;;;;4979911;28;20234;-87
2022/10/06 11:03:17;;;;;;;5.83;1.50;;;17.00;99.90;;;;;;4984343;28;20203;-86
2022/10/06 11:05:49;;;;;;;5.80;1.80;;;16.90;1.00;;;;;;4988485;28;20187;-86
2022/10/06 11:08:28;;;;;;;7.03;1.27;;;16.80;1.00;;;;;;4982166;28;20215;-86
2022/10/06 11:11:01;;;;;;;5.27;1.77;;;16.80;1.00;;;;;;4984838;28;20223;-86
2022/10/06 11:13:47;;;;;;;6.93;1.90;;;16.90;26.10;;;;;;4978205;28;20198;-87
2022/10/06 11:16:53;;;;;;;6.90;1.73;;;16.90;1.00;;;;;;4978143;28;20261;-88
2022/10/06 11:19:43;;;;;;;6.50;1.87;;;17.00;91.90;;;;;;4977528;28;20271;-88
2022/10/06 11:22:45;;;;;;;9.77;2.20;;;17.10;99.90;;;;;;4978000;28;20222;-86
2022/10/06 11:25:24;;;;;;;5.80;1.50;;;17.40;1.00;;;;;;4966631;28;20203;-86
2022/10/06 11:27:58;;;;;;;5.87;1.80;;;17.40;1.00;;;;;;4962575;28;20226;-86
2022/10/06 11:30:25;;;;;;;5.47;1.63;;;17.40;1.00;;;;;;4968422;28;20190;-87
2022/10/06 11:33:15;;;;;;;5.60;1.50;;;17.30;1.00;;;;;;4963636;29;20195;-86
2022/10/06 11:35:44;;;;;;;7.70;1.97;;;17.10;99.90;;;;;;4961195;28;20256;-87
2022/10/06 11:38:33;;;;;;;8.70;2.00;;;17.10;1.00;;;;;;4960671;29;20208;-87
2022/10/06 11:41:08;;;;;;;6.83;1.93;;;17.20;1.00;;;;;;4959819;28;20240;-86
2022/10/06 11:43:59;;;;;;;6.30;1.70;;;17.30;1.00;;;;;;4967106;28;20267;-85
2022/10/06 11:46:33;;;;;;;8.17;1.87;;;17.30;1.00;;;;;;4972777;28;20178;-88
2022/10/06 11:49:27;;;;;;;8.23;2.10;;;17.40;1.00;;;;;;4975400;28;20176;-86
2022/10/06 11:51:56;;;;;;;7.17;2.03;;;17.40;99.90;;;;;;4971434;28;20196;-87
2022/10/06 11:54:43;;;;;;;5.10;1.60;;;17.50;99.90;;;;;;4968042;28;20196;-87
2022/10/06 11:57:21;;;;;;;6.87;1.70;;;17.50;99.90;;;;;;4962725;28;20216;-85
2022/10/06 11:59:49;;;;;;;7.00;1.67;;;17.70;1.00;;;;;;4960016;28;20215;-87
2022/10/06 12:02:33;;;;;;;6.87;2.90;;;17.70;99.90;;;;;;4961254;28;20184;-85
2022/10/06 12:05:14;;;;;;;7.23;2.50;;;17.60;99.90;;;;;;4969906;28;20184;-86
2022/10/06 12:07:54;;;;;;;10.20;2.10;;;17.50;99.90;;;;;;4979647;28;20218;-86
2022/10/06 12:10:26;;;;;;;8.67;2.07;;;17.60;1.00;;;;;;4980887;28;20179;-89
2022/10/06 12:13:15;;;;;;;9.13;2.00;;;17.70;1.00;;;;;;4979875;28;20582;-89
2022/10/06 12:15:44;;;;;;;9.33;2.07;;;17.90;90.20;;;;;;4987764;28;20683;-85
2022/10/06 12:18:26;;;;;;;9.03;1.87;;;17.90;58.30;;;;;;4983628;28;20188;-90
2022/10/06 12:21:23;;;;;;;8.07;2.37;;;18.00;99.90;;;;;;4980001;28;20218;-86
2022/10/06 12:24:13;;;;;;;6.27;1.73;;;18.10;99.90;;;;;;4979569;28;20191;-88
2022/10/06 12:27:01;;;;;;;10.67;5.20;;;18.00;99.90;;;;;;4979361;28;20211;-89
2022/10/06 12:29:53;;;;;;;7.97;2.40;;;17.90;1.00;;;;;;4980027;28;20178;-89
2022/10/06 12:32:30;;;;;;;16.77;8.07;;;17.90;99.90;;;;;;4984501;28;20172;-89
2022/10/06 12:35:19;;;;;;;6.07;1.70;;;18.00;1.00;;;;;;4979827;28;20522;-89
2022/10/06 12:37:51;;;;;;;28.00;10.60;;;17.70;99.90;;;;;;4998243;28;20203;-86
2022/10/06 12:40:49;;;;;;;6.40;2.00;;;17.60;1.00;;;;;;4997862;28;20188;-86
2022/10/06 12:43:18;;;;;;;6.77;1.63;;;17.70;99.90;;;;;;4995804;28;20171;-88
2022/10/06 12:45:56;;;;;;;5.63;1.80;;;18.00;48.20;;;;;;4992897;28;20183;-85
2022/10/06 12:48:42;;;;;;;10.07;2.10;;;18.00;99.90;;;;;;4983711;28;20191;-85
2022/10/06 12:51:23;;;;;;;8.20;1.90;;;18.20;99.90;;;;;;4980515;28;20225;-86
2022/10/06 12:54:19;;;;;;;9.17;2.20;;;18.10;99.90;;;;;;4980433;28;20179;-86
2022/10/06 12:56:59;;;;;;;7.30;1.90;;;17.90;78.10;;;;;;4979738;28;20215;-86
2022/10/06 12:59:26;;;;;;;8.90;2.27;;;17.90;99.90;;;;;;4979538;28;20176;-85
2022/10/06 13:01:59;;;;;;;6.57;2.07;;;18.20;99.90;;;;;;4988773;28;20175;-87
2022/10/06 13:04:39;;;;;;;8.67;2.20;;;18.30;1.00;;;;;;4981185;28;20195;-87
2022/10/06 13:07:13;;;;;;;10.90;2.20;;;18.40;1.00;;;;;;4977126;28;20182;-85
2022/10/06 13:09:39;;;;;;;7.93;1.73;;;18.40;1.00;;;;;;4977092;28;20178;-88
2022/10/06 13:12:24;;;;;;;10.07;1.80;;;18.40;1.00;;;;;;4976802;28;20236;-86
2022/10/06 13:15:33;;;;;;;10.20;2.27;;;18.40;1.00;;;;;;4976559;28;20203;-88
2022/10/06 13:18:11;;;;;;;8.93;2.27;;;18.10;1.00;;;;;;4979595;28;20207;-86
2022/10/06 13:20:57;;;;;;;8.03;2.00;;;17.90;63.40;;;;;;4982706;28;20198;-86
2022/10/06 13:23:37;;;;;;;6.47;1.90;;;17.90;1.00;;;;;;4985727;28;20228;-85